Time;durP1;ratioP1;P1;durP2;ratioP2;P2;SDS_P1;SDS_P2;PMS_P1;PMS_P2;Temp;Humidity;BMP_temperature;BMP_pressure;BME280_temperature;BME280_humidity;BME280_pressure;Samples;Min_cycle;Max_cycle;Signal;HPM_P1;HPM_P2
2022/12/06 00:01:33;;;;;;;24.33;14.02;;;5.50;99.90;;;4.45;100.00;101589.25;4221324;28;20059;-76
2022/12/06 00:03:35;;;;;;;28.17;15.27;;;5.50;99.90;;;4.50;100.00;101596.81;4220074;28;20032;-76
2022/12/06 00:05:36;;;;;;;27.80;14.32;;;5.50;99.90;;;4.48;100.00;101591.66;4253673;27;20027;-76
2022/12/06 00:07:38;;;;;;;26.65;13.93;;;5.50;99.90;;;4.50;100.00;101575.06;4221244;28;20032;-76
2022/12/06 00:09:39;;;;;;;26.42;13.95;;;5.50;99.90;;;4.52;100.00;101581.03;4220091;28;20471;-76
2022/12/06 00:11:40;;;;;;;25.60;14.23;;;5.50;99.90;;;4.54;100.00;101587.03;4220756;28;20074;-76
2022/12/06 00:13:42;;;;;;;24.92;14.68;;;5.60;99.90;;;4.51;100.00;101587.22;4221296;28;20102;-76
2022/12/06 00:15:43;;;;;;;31.00;15.07;;;5.60;99.90;;;4.51;100.00;101588.03;4219933;28;20055;-76
2022/12/06 00:17:44;;;;;;;23.13;14.27;;;5.60;99.90;;;4.50;100.00;101580.28;4220117;28;20476;-76
2022/12/06 00:19:45;;;;;;;28.08;15.27;;;5.60;99.90;;;4.50;100.00;101575.06;4221014;28;20102;-76
2022/12/06 00:21:46;;;;;;;26.25;14.27;;;5.60;99.90;;;4.55;100.00;101584.28;4220981;28;20031;-76
2022/12/06 00:23:54;;;;;;;26.85;14.63;;;5.50;99.90;;;4.56;100.00;101578.13;4220703;28;20517;-76
2022/12/06 00:25:55;;;;;;;23.73;12.77;;;5.60;99.90;;;4.55;100.00;101586.06;4220741;28;20361;-76
2022/12/06 00:27:55;;;;;;;27.15;14.50;;;5.60;99.90;;;4.53;100.00;101572.25;4220768;28;20039;-76
2022/12/06 00:29:56;;;;;;;25.75;14.50;;;5.60;99.90;;;4.52;100.00;101575.81;4202724;28;20036;-76
2022/12/06 00:31:57;;;;;;;24.63;13.70;;;5.60;99.90;;;4.52;100.00;101571.44;4219754;28;20429;-76
2022/12/06 00:33:59;;;;;;;24.02;13.38;;;5.60;99.90;;;4.49;100.00;101571.63;4219727;28;20033;-76
2022/12/06 00:36:06;;;;;;;23.67;15.05;;;5.50;99.90;;;4.42;100.00;101571.16;4220714;28;20077;-75
2022/12/06 00:38:07;;;;;;;28.23;15.15;;;5.50;99.90;;;4.47;100.00;101578.72;4236804;27;20031;-76
2022/12/06 00:40:09;;;;;;;23.77;13.98;;;5.50;99.90;;;4.42;100.00;101568.53;4220821;28;20106;-76
2022/12/06 00:42:10;;;;;;;24.67;13.57;;;5.40;99.90;;;4.41;100.00;101569.50;4219104;28;20035;-76
2022/12/06 00:44:11;;;;;;;26.50;14.55;;;5.50;99.90;;;4.38;100.00;101567.09;4219068;28;20024;-76
2022/12/06 00:46:16;;;;;;;30.90;15.55;;;5.50;99.90;;;4.45;100.00;101568.34;4219282;28;20503;-76
2022/12/06 00:48:17;;;;;;;25.83;14.52;;;5.50;99.90;;;4.39;100.00;101567.94;4236289;28;20038;-76
2022/12/06 00:50:18;;;;;;;26.08;13.93;;;5.40;99.90;;;4.30;100.00;101569.31;4220513;28;20102;-76
2022/12/06 00:52:18;;;;;;;24.23;14.48;;;5.40;99.90;;;4.33;100.00;101566.50;4220364;28;20079;-76
2022/12/06 00:54:19;;;;;;;28.13;15.25;;;5.40;99.90;;;4.34;100.00;101562.97;4219602;28;20032;-76
2022/12/06 00:56:21;;;;;;;25.73;15.32;;;5.40;99.90;;;4.32;100.00;101557.03;4220492;28;20072;-76
2022/12/06 00:58:22;;;;;;;28.55;15.88;;;5.40;99.90;;;4.34;100.00;101559.53;4235935;28;20103;-76
2022/12/06 01:00:23;;;;;;;27.02;15.23;;;5.40;99.90;;;4.29;100.00;101551.13;4219054;28;20020;-76
2022/12/06 01:02:24;;;;;;;26.50;14.65;;;5.40;99.90;;;4.36;100.00;101561.09;4220494;28;20043;-75
2022/12/06 01:04:25;;;;;;;26.02;14.02;;;5.40;99.90;;;4.28;100.00;101549.44;4220379;28;20020;-76
2022/12/06 01:06:30;;;;;;;26.50;15.32;;;5.40;99.90;;;4.27;100.00;101563.47;4220453;28;20032;-76
2022/12/06 01:08:32;;;;;;;27.05;15.63;;;5.40;99.90;;;4.23;100.00;101562.81;4219017;28;20024;-76
2022/12/06 01:10:34;;;;;;;26.55;14.70;;;5.40;99.90;;;4.28;100.00;101560.75;4218913;28;20036;-76
2022/12/06 01:12:35;;;;;;;24.38;14.88;;;5.30;99.90;;;4.29;100.00;101554.59;4220194;28;20483;-76
2022/12/06 01:14:36;;;;;;;28.50;14.60;;;5.30;99.90;;;4.30;100.00;101561.47;4218970;28;20028;-75
2022/12/06 01:16:38;;;;;;;28.27;14.93;;;5.30;99.90;;;4.32;100.00;101551.78;4219936;28;20078;-76
2022/12/06 01:18:40;;;;;;;29.15;14.95;;;5.30;99.90;;;4.36;100.00;101548.03;4217984;28;20020;-75
2022/12/06 01:20:41;;;;;;;27.15;16.48;;;5.30;99.90;;;4.35;100.00;101540.31;4220162;28;20480;-75
2022/12/06 01:22:42;;;;;;;28.50;15.63;;;5.30;99.90;;;4.28;100.00;101544.22;4218712;28;20048;-76
2022/12/06 01:24:42;;;;;;;27.52;16.25;;;5.30;99.90;;;4.24;100.00;101546.19;4218625;28;20020;-76
2022/12/06 01:26:43;;;;;;;26.95;16.17;;;5.30;99.90;;;4.24;100.00;101546.19;4218551;28;20032;-76
2022/12/06 01:28:45;;;;;;;26.50;15.57;;;5.30;99.90;;;4.30;100.00;101548.41;4252753;27;20519;-76
2022/12/06 01:30:46;;;;;;;27.70;15.23;;;5.30;99.90;;;4.28;100.00;101550.31;4218710;28;20519;-76
2022/12/06 01:32:46;;;;;;;27.27;15.10;;;5.30;99.90;;;4.28;100.00;101550.31;4252509;27;20060;-76
2022/12/06 01:34:51;;;;;;;28.52;15.10;;;5.30;99.90;;;4.31;100.00;101555.34;4218659;28;20020;-76
2022/12/06 01:36:51;;;;;;;27.52;16.08;;;5.30;99.90;;;4.26;100.00;101551.34;4251882;27;20030;-76
2022/12/06 01:38:57;;;;;;;25.73;14.65;;;5.30;99.90;;;4.29;100.00;101546.75;4218529;28;20028;-76
2022/12/06 01:40:58;;;;;;;24.60;15.55;;;5.30;99.90;;;4.28;100.00;101545.06;4218213;28;20104;-76
2022/12/06 01:42:59;;;;;;;28.50;16.33;;;5.30;99.90;;;4.24;100.00;101543.56;4219756;28;20431;-76
2022/12/06 01:45:00;;;;;;;34.35;16.70;;;5.30;99.90;;;4.28;100.00;101544.22;4219863;28;20028;-76
2022/12/06 01:47:02;;;;;;;25.65;15.23;;;5.30;99.90;;;4.31;100.00;101549.25;4218581;28;20024;-76
2022/12/06 01:49:11;;;;;;;31.27;17.30;;;5.30;99.90;;;4.29;100.00;101551.13;4218213;28;20510;-76
2022/12/06 01:51:13;;;;;;;28.25;15.65;;;5.30;99.90;;;4.20;100.00;101542.13;4219574;28;20028;-75
2022/12/06 01:53:14;;;;;;;26.52;15.60;;;5.30;99.90;;;4.21;100.00;101549.00;4218474;28;20114;-76
2022/12/06 01:55:17;;;;;;;26.33;15.43;;;5.30;99.90;;;4.20;100.00;101547.34;4218281;28;20024;-76
2022/12/06 01:57:18;;;;;;;30.52;16.25;;;5.30;99.90;;;4.23;100.00;101549.75;4216989;28;20028;-76
2022/12/06 01:59:20;;;;;;;29.02;15.35;;;5.30;99.90;;;4.29;100.00;101559.81;4218429;28;20028;-76
2022/12/06 02:01:23;;;;;;;27.50;16.10;;;5.30;99.90;;;4.20;100.00;101546.50;4218208;28;20032;-76
2022/12/06 02:03:27;;;;;;;30.67;16.02;;;5.30;99.90;;;4.19;100.00;101550.88;4219406;28;20028;-76
2022/12/06 02:05:29;;;;;;;29.42;17.58;;;5.30;99.90;;;4.21;100.00;101554.22;4219182;28;20028;-76
2022/12/06 02:07:31;;;;;;;27.90;16.73;;;5.30;99.90;;;4.20;100.00;101551.72;4217873;28;20511;-76
2022/12/06 02:09:33;;;;;;;29.88;17.25;;;5.30;99.90;;;4.22;100.00;101558.50;4218054;28;20071;-76
2022/12/06 02:11:34;;;;;;;35.03;16.95;;;5.20;99.90;;;4.23;100.00;101557.59;4218873;28;20035;-76
2022/12/06 02:13:36;;;;;;;29.38;17.17;;;5.30;99.90;;;4.24;100.00;101559.25;4219348;28;20032;-76
2022/12/06 02:16:11;;;;;;;32.15;18.27;;;5.20;99.90;;;4.18;100.00;101562.25;4218015;28;20091;-75
2022/12/06 02:18:18;;;;;;;;;;;5.20;99.90;;;4.12;100.00;101564.41;4218545;28;20130;-76
2022/12/06 02:20:57;;;;;;;29.88;15.23;;;5.20;99.90;;;4.12;100.00;101553.97;4201581;28;20003;-76
2022/12/06 02:23:19;;;;;;;27.33;15.98;;;5.20;99.90;;;4.09;100.00;101560.19;4217878;28;20463;-76
2022/12/06 02:25:58;;;;;;;28.15;16.08;;;5.20;99.90;;;4.07;100.00;101554.25;4219167;28;20484;-76
2022/12/06 02:28:41;;;;;;;31.60;16.48;;;5.10;99.90;;;4.12;100.00;101551.38;4218885;28;20032;-76
2022/12/06 02:30:54;;;;;;;28.00;16.25;;;5.20;99.90;;;4.08;100.00;101555.09;4218088;28;20541;-76
2022/12/06 02:33:05;;;;;;;32.25;17.40;;;5.20;99.90;;;4.11;100.00;101553.13;4218810;28;20074;-76
2022/12/06 02:35:40;;;;;;;30.33;16.67;;;5.20;99.90;;;4.07;100.00;101546.41;4217940;28;20025;-76
2022/12/06 02:38:08;;;;;;;24.23;14.40;;;5.10;99.90;;;4.06;100.00;101552.56;4217817;28;20487;-76
2022/12/06 02:40:18;;;;;;;24.98;14.98;;;5.10;99.90;;;4.04;100.00;101541.38;4183021;28;20111;-76
2022/12/06 02:42:31;;;;;;;31.02;16.20;;;5.10;99.90;;;4.10;100.00;101548.84;4217425;28;20111;-76
2022/12/06 02:44:52;;;;;;;30.20;16.73;;;5.10;99.90;;;4.00;100.00;101544.28;4217661;28;20028;-76
2022/12/06 02:46:57;;;;;;;29.75;15.95;;;5.10;99.90;;;3.96;100.00;101543.63;4217720;28;20036;-76
2022/12/06 02:49:01;;;;;;;32.72;16.98;;;5.00;99.90;;;3.96;100.00;101541.03;4217519;28;20035;-76
2022/12/06 02:51:06;;;;;;;;;;;5.00;99.90;;;4.01;100.00;101551.16;4217716;28;20121;-76
2022/12/06 02:53:12;;;;;;;29.63;15.50;;;5.00;99.90;;;4.01;100.00;101549.41;4217783;28;19912;-76
2022/12/06 02:55:15;;;;;;;30.55;16.42;;;5.10;99.90;;;4.03;100.00;101555.38;4217464;28;20024;-76
2022/12/06 02:57:23;;;;;;;31.83;16.35;;;5.10;99.90;;;4.09;100.00;101546.34;4216998;28;20117;-76
2022/12/06 02:59:24;;;;;;;33.08;17.35;;;5.10;99.90;;;4.08;100.00;101542.03;4217692;28;20031;-76
2022/12/06 03:01:33;;;;;;;32.67;17.02;;;5.10;99.90;;;4.09;100.00;101544.53;4218837;28;20483;-76
2022/12/06 03:04:00;;;;;;;33.33;18.02;;;5.10;99.90;;;4.05;100.00;101543.06;4217418;28;20027;-76
2022/12/06 03:06:01;;;;;;;30.73;16.95;;;5.10;99.90;;;4.04;100.00;101545.75;4217292;28;20031;-76
2022/12/06 03:08:22;;;;;;;28.73;15.65;;;5.10;99.90;;;4.03;100.00;101547.56;4218257;28;20020;-76
2022/12/06 03:10:52;;;;;;;30.33;16.65;;;5.10;99.90;;;4.01;100.00;101536.34;4235548;28;20173;-76
2022/12/06 03:13:11;;;;;;;32.28;16.58;;;5.10;99.90;;;4.02;100.00;101537.19;4249980;28;20089;-76
2022/12/06 03:15:18;;;;;;;30.88;15.73;;;5.10;99.90;;;4.04;100.00;101530.09;4250894;28;20023;-76
2022/12/06 03:17:52;;;;;;;32.20;16.67;;;5.10;99.90;;;4.05;100.00;101531.78;4233831;28;20081;-75
2022/12/06 03:19:59;;;;;;;29.42;16.50;;;5.10;99.90;;;4.05;100.00;101532.63;4218334;28;20028;-76
2022/12/06 03:22:13;;;;;;;31.15;17.33;;;5.10;99.90;;;4.04;100.00;101532.69;4200358;28;20024;-76
2022/12/06 03:24:15;;;;;;;29.05;15.23;;;5.10;99.90;;;4.05;100.00;101522.19;4218491;28;20431;-76
2022/12/06 03:26:26;;;;;;;27.50;15.75;;;5.10;99.90;;;4.05;100.00;101526.56;4218177;28;20493;-76
2022/12/06 03:28:28;;;;;;;26.38;15.38;;;5.10;99.90;;;4.03;100.00;101529.28;4217334;28;20082;-76
2022/12/06 03:30:33;;;;;;;29.67;15.70;;;5.10;99.90;;;4.05;100.00;101530.00;4217154;28;20066;-76
2022/12/06 03:32:37;;;;;;;26.63;15.88;;;5.10;99.90;;;4.01;100.00;101528.50;4217191;28;20110;-76
2022/12/06 03:34:43;;;;;;;27.60;14.18;;;5.10;99.90;;;4.03;100.00;101529.28;4218240;28;20035;-76
2022/12/06 03:36:47;;;;;;;25.60;14.10;;;5.10;99.90;;;4.02;100.00;101524.13;4217430;28;20036;-75
2022/12/06 03:38:54;;;;;;;27.20;14.80;;;5.10;99.90;;;3.99;100.00;101516.50;4217318;28;20496;-76
2022/12/06 03:40:59;;;;;;;28.70;15.40;;;5.10;99.90;;;3.97;100.00;101518.38;4216760;28;20035;-75
2022/12/06 03:43:01;;;;;;;27.45;15.35;;;5.10;99.90;;;4.03;100.00;101518.84;4217295;28;20024;-76
2022/12/06 03:45:03;;;;;;;28.63;15.00;;;5.10;99.90;;;4.04;100.00;101519.66;4217044;28;20036;-76
2022/12/06 03:47:41;;;;;;;25.77;14.10;;;5.10;99.90;;;4.06;100.00;101517.81;4233707;28;20032;-75
2022/12/06 03:49:57;;;;;;;23.85;15.00;;;5.10;99.90;;;4.07;100.00;101511.63;4205968;28;20074;-76
2022/12/06 03:51:58;;;;;;;24.83;15.27;;;5.10;99.90;;;4.01;100.00;101518.06;4217024;28;20455;-75
2022/12/06 03:54:03;;;;;;;25.92;14.38;;;5.10;99.90;;;4.06;100.00;101513.41;4216849;28;20032;-76
2022/12/06 03:56:05;;;;;;;26.88;14.15;;;5.10;99.90;;;3.97;100.00;101524.44;4216323;28;20023;-76
2022/12/06 03:58:05;;;;;;;23.92;13.60;;;5.10;99.90;;;4.02;100.00;101524.97;4218303;28;20024;-75
2022/12/06 04:00:07;;;;;;;26.58;14.38;;;5.10;99.90;;;3.94;100.00;101526.41;4216991;28;20403;-76
2022/12/06 04:02:09;;;;;;;27.58;14.25;;;5.10;99.90;;;3.96;100.00;101527.97;4216790;28;20020;-76
2022/12/06 04:04:10;;;;;;;26.30;15.30;;;5.10;99.90;;;3.98;100.00;101526.09;4250648;28;20115;-75
2022/12/06 04:06:12;;;;;;;27.00;15.25;;;5.00;99.90;;;3.94;100.00;101529.00;4233582;28;20030;-76
2022/12/06 04:08:12;;;;;;;33.45;16.20;;;5.00;99.90;;;4.00;100.00;101523.41;4217961;28;20035;-75
2022/12/06 04:10:13;;;;;;;28.80;15.75;;;5.00;99.90;;;4.02;100.00;101524.97;4217299;28;20709;-75
2022/12/06 04:14:38;;;;;;;28.63;16.27;;;5.00;99.90;;;3.88;100.00;101520.59;4217076;28;20039;-75
2022/12/06 04:18:58;;;;;;;29.27;14.85;;;5.00;99.90;;;3.91;100.00;101512.56;4217983;28;20039;-76
2022/12/06 04:23:23;;;;;;;27.45;15.63;;;5.00;99.90;;;3.96;100.00;101514.91;4220794;28;20051;-75
2022/12/06 04:25:24;;;;;;;28.42;16.20;;;5.00;99.90;;;3.97;100.00;101513.16;4219595;28;20024;-76
2022/12/06 04:39:04;;;;;;;29.60;16.85;;;5.00;99.90;;;3.90;100.00;101510.06;4220000;28;20039;-76
2022/12/06 04:41:05;;;;;;;26.08;14.38;;;5.00;99.90;;;3.90;100.00;101507.47;4219257;28;20060;-75
2022/12/06 04:45:28;;;;;;;27.70;15.63;;;4.90;99.90;;;3.90;100.00;101517.91;4220628;28;20035;-76
2022/12/06 04:47:30;;;;;;;33.17;16.15;;;5.00;99.90;;;3.86;100.00;101513.78;4236036;28;20024;-75
2022/12/06 04:49:31;;;;;;;34.33;17.48;;;5.00;99.90;;;3.92;100.00;101522.09;4219485;28;20121;-76
2022/12/06 04:51:32;;;;;;;29.40;16.02;;;5.00;99.90;;;3.95;100.00;101522.81;4235984;28;20132;-76
2022/12/06 04:53:33;;;;;;;32.42;17.15;;;5.00;99.90;;;3.94;100.00;101529.84;4219340;28;20468;-76
2022/12/06 04:55:34;;;;;;;28.80;16.45;;;5.00;99.90;;;3.90;100.00;101523.13;4218805;28;20020;-76
2022/12/06 04:57:35;;;;;;;33.15;16.90;;;5.00;99.90;;;3.92;100.00;101516.03;4219354;28;20024;-76
2022/12/06 04:59:38;;;;;;;32.60;17.65;;;5.00;99.90;;;3.87;100.00;101518.09;4220521;28;20391;-76
2022/12/06 05:01:39;;;;;;;27.97;16.47;;;5.00;99.90;;;3.91;100.00;101522.19;4218993;28;20032;-76
2022/12/06 05:03:40;;;;;;;33.70;17.52;;;5.00;99.90;;;3.91;100.00;101520.41;4219028;28;20027;-76
2022/12/06 05:05:41;;;;;;;30.00;16.10;;;4.90;99.90;;;3.93;100.00;101522.94;4219351;28;20039;-76
2022/12/06 05:07:42;;;;;;;32.30;15.70;;;4.90;99.90;;;3.93;100.00;101530.75;4202189;28;20033;-76
2022/12/06 05:09:43;;;;;;;36.03;17.70;;;5.00;99.90;;;3.92;100.00;101529.94;4220299;28;20023;-76
2022/12/06 05:11:44;;;;;;;31.48;17.38;;;4.90;99.90;;;3.96;100.00;101534.97;4219834;28;20028;-75
2022/12/06 05:13:44;;;;;;;38.63;19.20;;;5.00;99.90;;;3.95;100.00;101534.13;4219186;28;20016;-76
2022/12/06 05:15:58;;;;;;;37.92;17.95;;;5.00;99.90;;;3.82;100.00;101520.16;4218992;28;20074;-76
2022/12/06 05:17:59;;;;;;;38.33;17.13;;;5.00;99.90;;;3.83;100.00;101516.59;4234781;28;20089;-76
2022/12/06 05:20:00;;;;;;;38.92;18.00;;;4.90;99.90;;;3.89;100.00;101527.50;4219929;28;20024;-75
2022/12/06 05:22:00;;;;;;;36.35;17.85;;;4.90;99.90;;;3.90;100.00;101528.34;4201822;28;20033;-76
2022/12/06 05:24:01;;;;;;;35.85;16.98;;;4.90;99.90;;;3.84;100.00;101529.56;4220111;28;20028;-75
2022/12/06 05:26:07;;;;;;;37.90;18.65;;;4.90;99.90;;;3.76;100.00;101516.13;4219819;28;20488;-76
2022/12/06 05:28:09;;;;;;;37.67;16.63;;;4.90;99.90;;;3.78;100.00;101516.03;4219793;28;20031;-76
2022/12/06 05:30:11;;;;;;;34.58;16.25;;;4.80;99.90;;;3.81;100.00;101518.47;4219051;28;20458;-76
2022/12/06 05:32:12;;;;;;;36.65;16.45;;;4.90;99.90;;;3.80;100.00;101522.84;4218593;28;20028;-76
2022/12/06 05:34:13;;;;;;;33.03;16.33;;;4.80;99.90;;;3.82;100.00;101522.75;4219841;28;20023;-76
2022/12/06 05:36:21;;;;;;;38.20;17.48;;;4.90;99.90;;;3.85;100.00;101528.59;4219625;28;20078;-76
2022/12/06 05:38:23;;;;;;;31.85;16.10;;;4.90;99.90;;;3.85;100.00;101515.56;4218875;28;20090;-76
2022/12/06 05:40:24;;;;;;;40.10;17.83;;;4.90;99.90;;;3.82;100.00;101525.38;4219600;28;20054;-76
2022/12/06 05:42:25;;;;;;;35.92;19.00;;;4.90;99.90;;;3.88;100.00;101540.66;4219969;28;20028;-76
2022/12/06 05:44:26;;;;;;;38.35;17.85;;;4.90;99.90;;;3.87;100.00;101531.13;4219530;28;20032;-76
2022/12/06 05:46:26;;;;;;;43.15;19.98;;;4.90;99.90;;;3.81;100.00;101539.34;4252305;27;20027;-76
2022/12/06 05:48:27;;;;;;;35.47;18.05;;;4.90;99.90;;;3.80;100.00;101535.88;4218410;28;20111;-76
2022/12/06 05:50:28;;;;;;;40.83;17.92;;;4.90;99.90;;;3.73;100.00;101531.16;4235535;28;20027;-76
2022/12/06 05:52:29;;;;;;;37.42;18.55;;;4.90;99.90;;;3.66;100.00;101530.69;4219304;28;20441;-76
2022/12/06 05:54:30;;;;;;;38.17;18.42;;;4.80;99.90;;;3.79;100.00;101533.38;4219654;28;20024;-76
2022/12/06 05:56:32;;;;;;;40.78;17.88;;;4.80;99.90;;;3.76;100.00;101531.78;4219067;28;20031;-76
2022/12/06 05:58:33;;;;;;;39.60;18.30;;;4.80;99.90;;;3.74;100.00;101519.75;4219242;28;20031;-75
2022/12/06 06:00:34;;;;;;;39.53;18.73;;;4.80;99.90;;;3.72;100.00;101519.03;4219216;28;20435;-76
2022/12/06 06:02:35;;;;;;;38.58;18.67;;;4.80;99.90;;;3.74;100.00;101532.81;4219539;28;20019;-76
2022/12/06 06:04:36;;;;;;;36.00;17.48;;;4.80;99.90;;;3.78;100.00;101534.31;4218305;28;20028;-76
2022/12/06 06:06:37;;;;;;;37.38;18.67;;;4.80;99.90;;;3.73;100.00;101525.94;4219173;28;20483;-76
2022/12/06 06:08:37;;;;;;;40.42;18.52;;;4.80;99.90;;;3.74;100.00;101535.41;4251190;27;20460;-75
2022/12/06 06:10:38;;;;;;;38.55;18.25;;;4.80;99.90;;;3.68;100.00;101533.19;4219002;28;20024;-76
2022/12/06 06:12:39;;;;;;;43.90;19.40;;;4.80;99.90;;;3.60;100.00;101530.19;4218034;28;20035;-76
2022/12/06 06:14:40;;;;;;;40.97;18.35;;;4.70;99.90;;;3.59;100.00;101529.34;4219126;28;20028;-76
2022/12/06 06:16:41;;;;;;;45.03;18.60;;;4.70;99.90;;;3.70;100.00;101536.56;4217831;28;20017;-76
2022/12/06 06:18:42;;;;;;;37.35;18.17;;;4.70;99.90;;;3.68;100.00;101538.41;4218209;28;20028;-75
2022/12/06 06:20:52;;;;;;;38.08;18.33;;;4.70;99.90;;;3.65;100.00;101534.22;4218726;28;20491;-75
2022/12/06 06:22:53;;;;;;;38.15;17.02;;;4.70;99.90;;;3.73;100.00;101520.72;4217766;28;20052;-76
2022/12/06 06:24:54;;;;;;;35.90;16.20;;;4.70;99.90;;;3.78;100.00;101531.69;4217700;28;20069;-76
2022/12/06 06:26:54;;;;;;;37.70;17.65;;;4.80;99.90;;;3.70;100.00;101532.16;4218847;28;20081;-75
2022/12/06 06:28:55;;;;;;;38.72;18.35;;;4.70;99.90;;;3.69;100.00;101529.66;4218976;28;20028;-76
2022/12/06 06:30:56;;;;;;;40.13;17.60;;;4.80;99.90;;;3.67;100.00;101541.97;4217749;28;20038;-75
2022/12/06 06:32:57;;;;;;;41.20;18.05;;;4.80;99.90;;;3.73;100.00;101546.81;4217579;28;20058;-76
2022/12/06 06:34:58;;;;;;;39.17;18.10;;;4.80;99.90;;;3.78;100.00;101547.34;4218966;28;20039;-75
2022/12/06 06:36:59;;;;;;;39.88;17.77;;;4.80;99.90;;;3.80;100.00;101555.91;4251473;27;20481;-76
2022/12/06 06:38:59;;;;;;;34.97;15.88;;;4.80;99.90;;;3.74;100.00;101551.91;4218788;28;20020;-75
2022/12/06 06:41:02;;;;;;;36.42;17.10;;;4.80;99.90;;;3.65;100.00;101554.22;4217299;28;20028;-75
2022/12/06 06:43:19;;;;;;;37.70;17.80;;;4.80;99.90;;;3.67;100.00;101562.81;4217120;28;20028;-75
2022/12/06 06:45:20;;;;;;;37.65;16.80;;;4.80;99.90;;;3.66;100.00;101558.53;4217821;28;20481;-75
2022/12/06 06:47:22;;;;;;;41.70;18.15;;;4.70;99.90;;;3.54;100.00;101560.09;4218587;28;20036;-75
2022/12/06 06:49:23;;;;;;;34.85;15.43;;;4.70;99.90;;;3.50;100.00;101555.16;4218909;28;20107;-75
2022/12/06 06:51:24;;;;;;;40.78;16.92;;;4.60;99.90;;;3.55;100.00;101560.94;4218682;28;20392;-76
2022/12/06 06:53:26;;;;;;;37.08;17.27;;;4.60;99.90;;;3.56;100.00;101570.44;4218661;28;20016;-76
2022/12/06 06:55:29;;;;;;;36.65;16.40;;;4.60;99.90;;;3.53;100.00;101568.00;4218315;28;20020;-76
2022/12/06 06:57:29;;;;;;;39.45;18.00;;;4.60;99.90;;;3.55;100.00;101567.00;4218752;28;20027;-76
2022/12/06 06:59:30;;;;;;;38.70;17.35;;;4.60;99.90;;;3.55;100.00;101568.78;4218647;28;20032;-76
2022/12/06 07:01:31;;;;;;;40.15;18.15;;;4.60;99.90;;;3.59;100.00;101565.03;4200556;28;20020;-76
2022/12/06 07:03:33;;;;;;;40.55;18.02;;;4.60;99.90;;;3.55;100.00;101568.78;4217251;28;20035;-75
2022/12/06 07:05:34;;;;;;;39.83;18.05;;;4.60;99.90;;;3.64;100.00;101569.06;4217472;28;20031;-75
2022/12/06 07:07:35;;;;;;;36.35;16.58;;;4.60;99.90;;;3.58;100.00;101571.19;4218186;28;20475;-75
2022/12/06 07:09:37;;;;;;;40.20;19.30;;;4.60;99.90;;;3.61;100.00;101564.03;4217826;28;20020;-75
2022/12/06 07:11:38;;;;;;;43.28;17.75;;;4.60;99.90;;;3.50;100.00;101562.97;4216995;28;20040;-74
2022/12/06 07:13:42;;;;;;;38.25;17.00;;;4.60;99.90;;;3.50;100.00;101558.59;4216837;28;20437;-77
2022/12/06 07:15:43;;;;;;;36.42;16.23;;;4.60;99.90;;;3.53;100.00;101563.63;4216923;28;20031;-77
2022/12/06 07:17:43;;;;;;;33.97;15.88;;;4.60;99.90;;;3.37;100.00;101562.03;4215878;28;20139;-76
2022/12/06 07:19:44;;;;;;;36.33;16.63;;;4.50;99.90;;;3.46;100.00;101566.72;4216031;28;20021;-75
2022/12/06 07:21:45;;;;;;;34.13;15.88;;;4.50;99.90;;;3.39;100.00;101575.81;4215533;28;20922;-75
2022/12/06 07:23:46;;;;;;;36.92;16.55;;;4.50;99.90;;;3.39;100.00;101568.00;4215541;28;20047;-75
2022/12/06 07:25:47;;;;;;;34.70;16.30;;;4.50;99.90;;;3.42;100.00;101567.81;4218158;28;20024;-75
2022/12/06 07:27:47;;;;;;;35.47;16.58;;;4.50;99.90;;;3.44;100.00;101574.59;4217090;28;20036;-75
2022/12/06 07:29:48;;;;;;;32.30;16.55;;;4.50;99.90;;;3.48;100.00;101575.28;4217035;28;20540;-75
2022/12/06 07:31:49;;;;;;;34.47;15.35;;;4.50;99.90;;;3.45;100.00;101575.44;4218365;28;20055;-76
2022/12/06 07:33:56;;;;;;;37.50;17.00;;;4.50;99.90;;;3.47;100.00;101579.66;4218348;28;20016;-75
2022/12/06 07:35:57;;;;;;;38.72;17.20;;;4.50;99.90;;;3.45;100.00;101583.28;4217033;28;20040;-75
2022/12/06 07:37:58;;;;;;;33.15;15.05;;;4.50;99.90;;;3.47;100.00;101576.19;4218449;28;20120;-75
2022/12/06 07:39:59;;;;;;;36.38;15.35;;;4.50;99.90;;;3.46;100.00;101585.81;4218303;28;20024;-75
2022/12/06 07:46:40;;;;;;;34.75;16.05;;;4.60;99.90;;;3.46;100.00;101590.19;4217208;28;20078;-75
2022/12/06 07:48:41;;;;;;;36.10;15.30;;;4.60;99.90;;;3.49;100.00;101593.47;4218144;28;20032;-75
2022/12/06 07:50:42;;;;;;;33.75;16.50;;;4.60;99.90;;;3.51;100.00;101598.56;4217858;28;20085;-77
2022/12/06 07:52:44;;;;;;;40.50;16.75;;;4.60;99.90;;;3.46;100.00;101596.25;4217846;28;20027;-77
2022/12/06 07:54:45;;;;;;;41.47;16.35;;;4.60;99.90;;;3.44;100.00;101592.88;4251242;27;20084;-77
2022/12/06 07:56:47;;;;;;;39.53;16.23;;;4.50;99.90;;;3.43;100.00;101592.97;4221210;28;20024;-77
2022/12/06 07:58:48;;;;;;;37.80;14.98;;;4.60;99.90;;;3.44;100.00;101605.06;4220000;28;20024;-77
2022/12/06 08:00:48;;;;;;;32.70;14.85;;;4.50;99.90;;;3.42;100.00;101605.16;4221386;28;20406;-77
2022/12/06 08:02:49;;;;;;;34.97;14.30;;;4.50;99.90;;;3.49;100.00;101606.50;4253992;27;20026;-77
2022/12/06 08:04:51;;;;;;;35.53;15.73;;;4.50;99.90;;;3.42;100.00;101599.94;4221187;28;20490;-77
2022/12/06 08:06:52;;;;;;;31.88;13.55;;;4.50;99.90;;;3.45;100.00;101599.78;4236687;28;20454;-76
2022/12/06 08:08:53;;;;;;;34.63;14.73;;;4.50;99.90;;;3.47;100.00;101597.06;4221266;28;20023;-77
2022/12/06 08:10:57;;;;;;;36.92;15.13;;;4.60;99.90;;;3.45;100.00;101594.56;4219742;28;20032;-77
2022/12/06 08:12:58;;;;;;;33.63;12.32;;;4.50;99.90;;;3.43;100.00;101596.44;4220180;28;20035;-77
2022/12/06 08:14:59;;;;;;;32.53;14.52;;;4.50;99.90;;;3.46;100.00;101603.22;4219494;28;20028;-76
2022/12/06 08:17:00;;;;;;;33.40;14.48;;;4.50;99.90;;;3.49;100.00;101606.50;4220944;28;20168;-77
2022/12/06 08:19:02;;;;;;;32.75;15.77;;;4.60;99.90;;;3.47;100.00;101602.28;4218970;28;20024;-77
2022/12/06 08:21:03;;;;;;;30.10;13.93;;;4.60;99.90;;;3.44;100.00;101612.88;4219842;28;20039;-77
2022/12/06 08:23:04;;;;;;;29.13;13.95;;;4.50;99.90;;;3.44;100.00;101618.09;4219702;28;20126;-76
2022/12/06 08:25:05;;;;;;;32.33;14.00;;;4.50;99.90;;;3.46;100.00;101611.03;4219874;28;20075;-77
2022/12/06 08:27:06;;;;;;;30.05;14.00;;;4.60;99.90;;;3.38;100.00;101603.66;4220762;28;20028;-77
2022/12/06 08:29:07;;;;;;;30.02;12.70;;;4.50;99.90;;;3.37;100.00;101612.44;4220893;28;20085;-77
2022/12/06 08:31:16;;;;;;;34.85;13.75;;;4.50;99.90;;;3.37;100.00;101607.22;4220717;28;20032;-76
2022/12/06 08:33:17;;;;;;;33.92;13.07;;;4.50;99.90;;;3.37;100.00;101611.59;4236729;28;20070;-77
2022/12/06 08:35:18;;;;;;;29.05;14.82;;;4.40;99.90;;;3.36;100.00;101608.13;4219875;28;20020;-76
2022/12/06 08:37:19;;;;;;;34.20;13.98;;;4.50;99.90;;;3.38;100.00;101608.03;4253624;27;20024;-76
2022/12/06 08:39:20;;;;;;;31.42;13.73;;;4.50;99.90;;;3.46;100.00;101600.63;4219511;28;20016;-77
2022/12/06 08:43:41;;;;;;;30.42;12.88;;;4.50;99.90;;;3.47;100.00;101607.50;4219931;28;20101;-77
2022/12/06 08:45:42;;;;;;;30.77;13.43;;;4.50;99.90;;;3.40;100.00;101601.81;4220566;28;20032;-76
2022/12/06 08:47:43;;;;;;;28.98;13.75;;;4.50;99.90;;;3.40;100.00;101606.19;4220713;28;20491;-76
2022/12/06 08:49:44;;;;;;;31.00;14.43;;;4.50;99.90;;;3.48;100.00;101610.03;4220629;28;20036;-77
2022/12/06 08:51:46;;;;;;;30.38;14.20;;;4.60;99.90;;;3.43;100.00;101606.84;4219424;28;20066;-77
2022/12/06 08:53:47;;;;;;;26.08;12.90;;;4.50;99.90;;;3.51;100.00;101602.03;4220440;28;20086;-77
2022/12/06 08:55:55;;;;;;;33.08;13.13;;;4.60;99.90;;;3.54;100.00;101604.44;4219071;28;20024;-77
2022/12/06 08:57:55;;;;;;;28.17;14.23;;;4.60;99.90;;;3.54;100.00;101603.59;4219394;28;20395;-77
2022/12/06 08:59:56;;;;;;;29.77;14.60;;;4.60;99.90;;;3.58;100.00;101605.13;4220389;28;20020;-77